sensor_id;sensor_type;location;lat;lon;timestamp;pressure;altitude;pressure_sealevel;temperature;humidity
75788;BME280;64406;50.024;14.492;2024-02-21T00:02:08;98726.97;;;5.33;82.37
75788;BME280;64406;50.024;14.492;2024-02-21T00:04:33;98732.22;;;5.28;82.71
75788;BME280;64406;50.024;14.492;2024-02-21T00:07:00;98736.03;;;5.32;82.55
75788;BME280;64406;50.024;14.492;2024-02-21T00:09:25;98726.88;;;5.28;83.00
75788;BME280;64406;50.024;14.492;2024-02-21T00:11:51;98717.00;;;5.29;82.96
75788;BME280;64406;50.024;14.492;2024-02-21T00:14:17;98719.56;;;5.24;83.37
75788;BME280;64406;50.024;14.492;2024-02-21T00:16:42;98712.13;;;5.26;83.57
75788;BME280;64406;50.024;14.492;2024-02-21T00:19:08;98708.06;;;5.35;82.99
75788;BME280;64406;50.024;14.492;2024-02-21T00:21:39;98702.34;;;5.19;83.87
75788;BME280;64406;50.024;14.492;2024-02-21T00:24:05;98694.22;;;5.14;83.96
75788;BME280;64406;50.024;14.492;2024-02-21T00:26:30;98696.19;;;5.07;84.12
75788;BME280;64406;50.024;14.492;2024-02-21T00:28:56;98696.31;;;5.01;84.62
75788;BME280;64406;50.024;14.492;2024-02-21T00:31:21;98693.31;;;4.97;84.62
75788;BME280;64406;50.024;14.492;2024-02-21T00:33:47;98686.31;;;4.84;85.20
75788;BME280;64406;50.024;14.492;2024-02-21T00:36:13;98688.03;;;4.79;85.41
75788;BME280;64406;50.024;14.492;2024-02-21T00:38:38;98686.75;;;4.70;86.32
75788;BME280;64406;50.024;14.492;2024-02-21T00:41:04;98686.88;;;4.63;86.19
75788;BME280;64406;50.024;14.492;2024-02-21T00:43:30;98673.28;;;4.64;86.70
75788;BME280;64406;50.024;14.492;2024-02-21T00:45:55;98671.16;;;4.55;86.47
75788;BME280;64406;50.024;14.492;2024-02-21T00:48:21;98669.44;;;4.60;86.75
75788;BME280;64406;50.024;14.492;2024-02-21T00:50:47;98666.78;;;4.60;86.63
75788;BME280;64406;50.024;14.492;2024-02-21T00:53:13;98664.81;;;4.68;86.24
75788;BME280;64406;50.024;14.492;2024-02-21T00:55:39;98672.94;;;4.73;85.89
75788;BME280;64406;50.024;14.492;2024-02-21T00:58:05;98667.16;;;4.76;85.61
75788;BME280;64406;50.024;14.492;2024-02-21T01:00:31;98658.31;;;4.75;85.79
75788;BME280;64406;50.024;14.492;2024-02-21T01:02:56;98665.53;;;4.75;85.84
75788;BME280;64406;50.024;14.492;2024-02-21T01:05:22;98654.16;;;4.79;85.61
75788;BME280;64406;50.024;14.492;2024-02-21T01:07:48;98657.66;;;4.91;84.91
75788;BME280;64406;50.024;14.492;2024-02-21T01:10:13;98652.56;;;4.90;84.83
75788;BME280;64406;50.024;14.492;2024-02-21T01:12:39;98644.88;;;4.82;85.67
75788;BME280;64406;50.024;14.492;2024-02-21T01:15:05;98647.88;;;4.74;85.79
75788;BME280;64406;50.024;14.492;2024-02-21T01:17:31;98646.38;;;4.66;86.44
75788;BME280;64406;50.024;14.492;2024-02-21T01:19:56;98641.59;;;4.68;86.80
75788;BME280;64406;50.024;14.492;2024-02-21T01:22:22;98635.00;;;4.71;86.32
75788;BME280;64406;50.024;14.492;2024-02-21T01:24:47;98636.28;;;4.68;86.78
75788;BME280;64406;50.024;14.492;2024-02-21T01:27:13;98634.66;;;4.79;86.26
75788;BME280;64406;50.024;14.492;2024-02-21T01:29:38;98623.44;;;4.77;86.45
75788;BME280;64406;50.024;14.492;2024-02-21T01:32:04;98624.78;;;4.68;86.71
75788;BME280;64406;50.024;14.492;2024-02-21T01:34:30;98622.84;;;4.63;87.26
75788;BME280;64406;50.024;14.492;2024-02-21T01:36:55;98618.75;;;4.60;87.53
75788;BME280;64406;50.024;14.492;2024-02-21T01:39:21;98620.28;;;4.56;87.41
75788;BME280;64406;50.024;14.492;2024-02-21T01:41:47;98610.75;;;4.60;87.43
75788;BME280;64406;50.024;14.492;2024-02-21T01:44:12;98615.63;;;4.63;87.17
75788;BME280;64406;50.024;14.492;2024-02-21T01:46:38;98609.38;;;4.70;87.57
75788;BME280;64406;50.024;14.492;2024-02-21T01:49:04;98604.84;;;4.70;87.06
75788;BME280;64406;50.024;14.492;2024-02-21T01:51:30;98606.47;;;4.71;87.39
75788;BME280;64406;50.024;14.492;2024-02-21T01:53:56;98609.16;;;4.83;86.90
75788;BME280;64406;50.024;14.492;2024-02-21T01:56:23;98602.53;;;4.85;86.33
75788;BME280;64406;50.024;14.492;2024-02-21T01:58:50;98601.72;;;4.85;86.18
75788;BME280;64406;50.024;14.492;2024-02-21T02:01:17;98595.47;;;4.91;86.18
75788;BME280;64406;50.024;14.492;2024-02-21T02:03:45;98599.97;;;4.90;86.19
75788;BME280;64406;50.024;14.492;2024-02-21T02:06:10;98593.47;;;4.98;85.61
75788;BME280;64406;50.024;14.492;2024-02-21T02:08:36;98585.47;;;4.98;85.36
75788;BME280;64406;50.024;14.492;2024-02-21T02:11:02;98583.38;;;5.00;85.34
75788;BME280;64406;50.024;14.492;2024-02-21T02:13:28;98580.56;;;5.07;84.66
75788;BME280;64406;50.024;14.492;2024-02-21T02:15:54;98585.34;;;5.05;85.18
75788;BME280;64406;50.024;14.492;2024-02-21T02:18:20;98577.44;;;5.10;84.79
75788;BME280;64406;50.024;14.492;2024-02-21T02:20:46;98581.97;;;5.09;84.86
75788;BME280;64406;50.024;14.492;2024-02-21T02:23:30;98568.97;;;5.13;84.49
75788;BME280;64406;50.024;14.492;2024-02-21T02:25:57;98568.97;;;5.13;84.22
75788;BME280;64406;50.024;14.492;2024-02-21T02:28:23;98567.47;;;5.05;84.94
75788;BME280;64406;50.024;14.492;2024-02-21T02:30:49;98564.44;;;5.13;84.83
75788;BME280;64406;50.024;14.492;2024-02-21T02:33:14;98562.56;;;5.14;84.39
75788;BME280;64406;50.024;14.492;2024-02-21T02:35:40;98556.31;;;5.08;85.12
75788;BME280;64406;50.024;14.492;2024-02-21T02:38:06;98553.31;;;5.05;84.89
75788;BME280;64406;50.024;14.492;2024-02-21T02:40:33;98544.50;;;5.04;84.98
75788;BME280;64406;50.024;14.492;2024-02-21T02:42:59;98546.91;;;5.06;84.68
75788;BME280;64406;50.024;14.492;2024-02-21T02:45:25;98542.50;;;5.11;84.70
75788;BME280;64406;50.024;14.492;2024-02-21T02:47:54;98550.41;;;5.06;84.74
75788;BME280;64406;50.024;14.492;2024-02-21T02:50:20;98540.28;;;5.08;84.37
75788;BME280;64406;50.024;14.492;2024-02-21T02:52:46;98537.84;;;5.07;85.21
75788;BME280;64406;50.024;14.492;2024-02-21T02:55:11;98538.91;;;5.06;84.95
75788;BME280;64406;50.024;14.492;2024-02-21T02:57:37;98531.13;;;5.04;85.17
75788;BME280;64406;50.024;14.492;2024-02-21T03:00:03;98523.03;;;4.99;85.45
75788;BME280;64406;50.024;14.492;2024-02-21T03:02:29;98518.25;;;5.01;85.17
75788;BME280;64406;50.024;14.492;2024-02-21T03:04:56;98521.63;;;4.97;85.74
75788;BME280;64406;50.024;14.492;2024-02-21T03:07:22;98514.19;;;4.99;85.40
75788;BME280;64406;50.024;14.492;2024-02-21T03:09:47;98522.56;;;5.02;85.18
75788;BME280;64406;50.024;14.492;2024-02-21T03:12:13;98515.81;;;5.00;85.23
75788;BME280;64406;50.024;14.492;2024-02-21T03:14:44;98517.44;;;5.01;85.64
75788;BME280;64406;50.024;14.492;2024-02-21T03:17:10;98513.16;;;5.00;85.31
75788;BME280;64406;50.024;14.492;2024-02-21T03:19:35;98516.38;;;5.02;85.57
75788;BME280;64406;50.024;14.492;2024-02-21T03:22:01;98516.97;;;5.04;85.11
75788;BME280;64406;50.024;14.492;2024-02-21T03:24:26;98511.41;;;5.05;85.16
75788;BME280;64406;50.024;14.492;2024-02-21T03:26:52;98516.75;;;5.05;85.24
75788;BME280;64406;50.024;14.492;2024-02-21T03:29:17;98505.81;;;5.07;84.97
75788;BME280;64406;50.024;14.492;2024-02-21T03:31:43;98513.00;;;5.06;84.91
75788;BME280;64406;50.024;14.492;2024-02-21T03:34:11;98515.44;;;5.08;84.93
75788;BME280;64406;50.024;14.492;2024-02-21T03:36:37;98512.31;;;5.11;84.83
75788;BME280;64406;50.024;14.492;2024-02-21T03:39:03;98508.50;;;5.07;85.17
75788;BME280;64406;50.024;14.492;2024-02-21T03:41:29;98503.75;;;5.09;84.85
75788;BME280;64406;50.024;14.492;2024-02-21T03:43:54;98503.88;;;5.02;85.17
75788;BME280;64406;50.024;14.492;2024-02-21T03:46:20;98502.47;;;5.00;85.29
75788;BME280;64406;50.024;14.492;2024-02-21T03:48:45;98513.72;;;5.02;85.36
75788;BME280;64406;50.024;14.492;2024-02-21T03:51:11;98500.16;;;5.03;85.37
75788;BME280;64406;50.024;14.492;2024-02-21T03:53:37;98502.34;;;4.95;85.62
75788;BME280;64406;50.024;14.492;2024-02-21T03:56:03;98497.94;;;5.00;85.73
75788;BME280;64406;50.024;14.492;2024-02-21T03:58:32;98497.75;;;4.90;86.24
75788;BME280;64406;50.024;14.492;2024-02-21T04:01:00;98488.13;;;4.89;85.86
75788;BME280;64406;50.024;14.492;2024-02-21T04:03:26;98492.84;;;4.87;86.45
75788;BME280;64406;50.024;14.492;2024-02-21T04:05:51;98494.72;;;4.86;86.50
75788;BME280;64406;50.024;14.492;2024-02-21T04:08:17;98488.13;;;4.89;86.38
75788;BME280;64406;50.024;14.492;2024-02-21T04:10:43;98481.13;;;4.88;86.56
75788;BME280;64406;50.024;14.492;2024-02-21T04:13:09;98492.63;;;4.88;86.73
75788;BME280;64406;50.024;14.492;2024-02-21T04:15:35;98494.84;;;4.91;86.24
75788;BME280;64406;50.024;14.492;2024-02-21T04:18:01;98495.41;;;4.94;86.40
75788;BME280;64406;50.024;14.492;2024-02-21T04:20:26;98492.63;;;4.88;86.47
75788;BME280;64406;50.024;14.492;2024-02-21T04:22:52;98497.41;;;4.75;87.31
75788;BME280;64406;50.024;14.492;2024-02-21T04:25:18;98493.00;;;4.69;87.37
75788;BME280;64406;50.024;14.492;2024-02-21T04:27:44;98488.38;;;4.64;88.04
75788;BME280;64406;50.024;14.492;2024-02-21T04:30:10;98488.25;;;4.59;87.80
75788;BME280;64406;50.024;14.492;2024-02-21T04:32:36;98484.53;;;4.48;88.55
75788;BME280;64406;50.024;14.492;2024-02-21T04:35:01;98489.19;;;4.41;89.02
75788;BME280;64406;50.024;14.492;2024-02-21T04:37:27;98480.63;;;4.39;89.21
75788;BME280;64406;50.024;14.492;2024-02-21T04:39:52;98478.31;;;4.31;89.82
75788;BME280;64406;50.024;14.492;2024-02-21T04:42:18;98472.97;;;4.31;89.58
75788;BME280;64406;50.024;14.492;2024-02-21T04:44:44;98464.16;;;4.30;89.49
75788;BME280;64406;50.024;14.492;2024-02-21T04:47:10;98478.88;;;4.33;90.13
75788;BME280;64406;50.024;14.492;2024-02-21T04:49:35;98468.91;;;4.40;89.49
75788;BME280;64406;50.024;14.492;2024-02-21T04:52:01;98457.75;;;4.55;88.63
75788;BME280;64406;50.024;14.492;2024-02-21T04:54:27;98458.56;;;4.55;88.88
75788;BME280;64406;50.024;14.492;2024-02-21T04:56:52;98445.22;;;4.55;88.73
75788;BME280;64406;50.024;14.492;2024-02-21T04:59:18;98451.59;;;4.54;88.43
75788;BME280;64406;50.024;14.492;2024-02-21T05:01:44;98454.75;;;4.51;88.61
75788;BME280;64406;50.024;14.492;2024-02-21T05:04:10;98457.19;;;4.53;88.93
75788;BME280;64406;50.024;14.492;2024-02-21T05:06:39;98458.00;;;4.53;88.54
75788;BME280;64406;50.024;14.492;2024-02-21T05:09:06;98466.13;;;4.58;88.45
75788;BME280;64406;50.024;14.492;2024-02-21T05:11:31;98461.22;;;4.67;87.75
75788;BME280;64406;50.024;14.492;2024-02-21T05:13:57;98460.41;;;4.67;88.13
75788;BME280;64406;50.024;14.492;2024-02-21T05:16:23;98453.81;;;4.69;87.82
75788;BME280;64406;50.024;14.492;2024-02-21T05:18:49;98451.94;;;4.70;87.85
75788;BME280;64406;50.024;14.492;2024-02-21T05:21:14;98454.25;;;4.66;87.72
75788;BME280;64406;50.024;14.492;2024-02-21T05:23:40;98451.94;;;4.70;87.81
75788;BME280;64406;50.024;14.492;2024-02-21T05:26:06;98449.03;;;4.71;87.06
75788;BME280;64406;50.024;14.492;2024-02-21T05:28:32;98448.81;;;4.73;87.33
75788;BME280;64406;50.024;14.492;2024-02-21T05:30:57;98445.56;;;4.71;87.40
75788;BME280;64406;50.024;14.492;2024-02-21T05:33:24;98438.94;;;4.73;87.34
75788;BME280;64406;50.024;14.492;2024-02-21T05:35:50;98433.59;;;4.73;87.59
75788;BME280;64406;50.024;14.492;2024-02-21T05:38:16;98435.00;;;4.76;87.41
75788;BME280;64406;50.024;14.492;2024-02-21T05:40:42;98433.84;;;4.72;87.65
75788;BME280;64406;50.024;14.492;2024-02-21T05:43:08;98428.63;;;4.77;87.25
75788;BME280;64406;50.024;14.492;2024-02-21T05:45:34;98431.16;;;4.83;86.85
75788;BME280;64406;50.024;14.492;2024-02-21T05:48:00;98440.28;;;4.87;86.71
75788;BME280;64406;50.024;14.492;2024-02-21T05:50:25;98442.00;;;4.94;86.73
75788;BME280;64406;50.024;14.492;2024-02-21T05:52:54;98440.53;;;4.86;86.75
75788;BME280;64406;50.024;14.492;2024-02-21T05:55:19;98435.19;;;4.86;86.46
75788;BME280;64406;50.024;14.492;2024-02-21T05:57:45;98445.88;;;4.86;86.56
75788;BME280;64406;50.024;14.492;2024-02-21T06:00:11;98435.75;;;4.88;86.60
75788;BME280;64406;50.024;14.492;2024-02-21T06:02:37;98442.38;;;4.85;86.77
75788;BME280;64406;50.024;14.492;2024-02-21T06:05:02;98434.38;;;4.85;86.61
75788;BME280;64406;50.024;14.492;2024-02-21T06:07:28;98431.22;;;4.88;86.25
75788;BME280;64406;50.024;14.492;2024-02-21T06:09:53;98427.88;;;4.93;86.66
75788;BME280;64406;50.024;14.492;2024-02-21T06:12:19;98429.72;;;4.93;86.57
75788;BME280;64406;50.024;14.492;2024-02-21T06:14:45;98430.78;;;4.91;87.01
75788;BME280;64406;50.024;14.492;2024-02-21T06:17:10;98435.75;;;4.88;86.71
75788;BME280;64406;50.024;14.492;2024-02-21T06:19:40;98433.75;;;4.95;86.52
75788;BME280;64406;50.024;14.492;2024-02-21T06:22:06;98424.13;;;4.94;86.58
75788;BME280;64406;50.024;14.492;2024-02-21T06:24:34;98432.13;;;5.06;86.10
75788;BME280;64406;50.024;14.492;2024-02-21T06:27:00;98433.56;;;4.97;86.39
75788;BME280;64406;50.024;14.492;2024-02-21T06:29:25;98428.78;;;4.99;86.29
75788;BME280;64406;50.024;14.492;2024-02-21T06:31:51;98421.69;;;5.04;86.41
75788;BME280;64406;50.024;14.492;2024-02-21T06:34:16;98428.63;;;5.05;86.52
75788;BME280;64406;50.024;14.492;2024-02-21T06:36:42;98432.47;;;5.09;86.19
75788;BME280;64406;50.024;14.492;2024-02-21T06:39:09;98425.34;;;5.15;86.21
75788;BME280;64406;50.024;14.492;2024-02-21T06:41:37;98423.53;;;5.32;85.38
75788;BME280;64406;50.024;14.492;2024-02-21T06:44:03;98424.34;;;5.33;85.13
75788;BME280;64406;50.024;14.492;2024-02-21T06:46:41;98420.84;;;5.32;85.53
75788;BME280;64406;50.024;14.492;2024-02-21T06:49:07;98427.81;;;5.33;85.06
75788;BME280;64406;50.024;14.492;2024-02-21T06:51:33;98419.34;;;5.36;85.00
75788;BME280;64406;50.024;14.492;2024-02-21T06:53:59;98424.44;;;5.38;85.25
75788;BME280;64406;50.024;14.492;2024-02-21T06:56:26;98430.13;;;5.41;84.83
75788;BME280;64406;50.024;14.492;2024-02-21T06:58:59;98429.06;;;5.42;85.34
75788;BME280;64406;50.024;14.492;2024-02-21T07:01:25;98426.63;;;5.41;85.26
75788;BME280;64406;50.024;14.492;2024-02-21T07:03:50;98438.19;;;5.46;85.20
75788;BME280;64406;50.024;14.492;2024-02-21T07:06:16;98421.97;;;5.48;84.87
75788;BME280;64406;50.024;14.492;2024-02-21T07:08:43;98419.50;;;5.46;84.87
75788;BME280;64406;50.024;14.492;2024-02-21T07:11:09;98410.28;;;5.54;84.30
75788;BME280;64406;50.024;14.492;2024-02-21T07:13:34;98413.84;;;5.60;84.10
75788;BME280;64406;50.024;14.492;2024-02-21T07:16:00;98411.53;;;5.63;84.34
75788;BME280;64406;50.024;14.492;2024-02-21T07:18:26;98412.88;;;5.66;84.38
75788;BME280;64406;50.024;14.492;2024-02-21T07:20:52;98412.97;;;5.71;83.79
75788;BME280;64406;50.024;14.492;2024-02-21T07:23:18;98415.91;;;5.69;83.89
75788;BME280;64406;50.024;14.492;2024-02-21T07:25:44;98398.31;;;5.73;83.53
75788;BME280;64406;50.024;14.492;2024-02-21T07:28:10;98402.13;;;5.78;83.58
75788;BME280;64406;50.024;14.492;2024-02-21T07:30:35;98395.47;;;5.80;83.11
75788;BME280;64406;50.024;14.492;2024-02-21T07:33:01;98392.75;;;5.75;83.76
75788;BME280;64406;50.024;14.492;2024-02-21T07:35:27;98386.34;;;5.76;83.88
75788;BME280;64406;50.024;14.492;2024-02-21T07:37:53;98388.94;;;5.71;83.76
75788;BME280;64406;50.024;14.492;2024-02-21T07:40:18;98398.09;;;5.75;84.25
75788;BME280;64406;50.024;14.492;2024-02-21T07:42:44;98401.22;;;5.72;84.41
75788;BME280;64406;50.024;14.492;2024-02-21T07:45:10;98403.09;;;5.71;84.33
75788;BME280;64406;50.024;14.492;2024-02-21T07:47:36;98411.13;;;5.71;84.54
75788;BME280;64406;50.024;14.492;2024-02-21T07:50:03;98410.16;;;5.78;84.82
75788;BME280;64406;50.024;14.492;2024-02-21T07:52:29;98413.97;;;5.82;84.07
75788;BME280;64406;50.024;14.492;2024-02-21T07:54:55;98407.97;;;5.91;84.04
75788;BME280;64406;50.024;14.492;2024-02-21T07:57:20;98413.00;;;5.88;84.41
75788;BME280;64406;50.024;14.492;2024-02-21T07:59:47;98409.00;;;5.90;84.15
75788;BME280;64406;50.024;14.492;2024-02-21T08:02:16;98406.81;;;5.87;84.66
75788;BME280;64406;50.024;14.492;2024-02-21T08:04:42;98394.16;;;5.94;84.27
75788;BME280;64406;50.024;14.492;2024-02-21T08:07:08;98401.56;;;5.92;83.70
75788;BME280;64406;50.024;14.492;2024-02-21T08:09:39;98398.22;;;5.85;83.63
75788;BME280;64406;50.024;14.492;2024-02-21T08:12:06;98394.16;;;5.94;83.69
75788;BME280;64406;50.024;14.492;2024-02-21T08:14:33;98390.72;;;5.99;84.08
75788;BME280;64406;50.024;14.492;2024-02-21T08:16:58;98394.44;;;5.98;83.76
75788;BME280;64406;50.024;14.492;2024-02-21T08:19:24;98380.34;;;6.03;83.65
75788;BME280;64406;50.024;14.492;2024-02-21T08:21:50;98378.41;;;5.98;83.68
75788;BME280;64406;50.024;14.492;2024-02-21T08:24:16;98387.41;;;6.09;83.12
75788;BME280;64406;50.024;14.492;2024-02-21T08:26:42;98380.09;;;6.21;82.64
75788;BME280;64406;50.024;14.492;2024-02-21T08:29:07;98377.00;;;6.29;82.43
75788;BME280;64406;50.024;14.492;2024-02-21T08:31:33;98372.56;;;6.40;81.63
75788;BME280;64406;50.024;14.492;2024-02-21T08:34:02;98381.41;;;6.40;81.78
75788;BME280;64406;50.024;14.492;2024-02-21T08:36:33;98366.91;;;6.36;81.72
75788;BME280;64406;50.024;14.492;2024-02-21T08:39:00;98365.75;;;6.49;81.95
75788;BME280;64406;50.024;14.492;2024-02-21T08:41:32;98359.31;;;6.50;81.48
75788;BME280;64406;50.024;14.492;2024-02-21T08:43:59;98368.66;;;6.69;80.35
75788;BME280;64406;50.024;14.492;2024-02-21T08:46:26;98350.28;;;6.78;80.41
75788;BME280;64406;50.024;14.492;2024-02-21T08:48:52;98351.91;;;6.79;79.97
75788;BME280;64406;50.024;14.492;2024-02-21T08:51:18;98357.03;;;6.80;79.89
75788;BME280;64406;50.024;14.492;2024-02-21T08:53:45;98357.97;;;6.69;80.15
75788;BME280;64406;50.024;14.492;2024-02-21T08:56:11;98350.78;;;6.75;79.86
75788;BME280;64406;50.024;14.492;2024-02-21T08:58:38;98344.44;;;6.81;80.04
75788;BME280;64406;50.024;14.492;2024-02-21T09:01:04;98359.25;;;6.67;79.68
75788;BME280;64406;50.024;14.492;2024-02-21T09:03:34;98361.13;;;6.66;80.87
75788;BME280;64406;50.024;14.492;2024-02-21T09:06:01;98365.56;;;6.56;80.69
75788;BME280;64406;50.024;14.492;2024-02-21T09:08:26;98370.13;;;6.60;81.32
75788;BME280;64406;50.024;14.492;2024-02-21T09:10:53;98366.03;;;6.52;80.77
75788;BME280;64406;50.024;14.492;2024-02-21T09:13:18;98376.63;;;6.42;81.31
75788;BME280;64406;50.024;14.492;2024-02-21T09:15:44;98374.44;;;6.39;81.18
75788;BME280;64406;50.024;14.492;2024-02-21T09:18:10;98376.22;;;6.34;81.44
75788;BME280;64406;50.024;14.492;2024-02-21T09:20:35;98367.47;;;6.38;81.40
75788;BME280;64406;50.024;14.492;2024-02-21T09:23:01;98381.41;;;6.40;81.75
75788;BME280;64406;50.024;14.492;2024-02-21T09:25:27;98374.81;;;6.48;81.28
75788;BME280;64406;50.024;14.492;2024-02-21T09:27:55;98360.00;;;6.62;80.36
75788;BME280;64406;50.024;14.492;2024-02-21T09:30:24;98349.41;;;6.72;80.66
75788;BME280;64406;50.024;14.492;2024-02-21T09:32:50;98353.31;;;6.87;79.54
75788;BME280;64406;50.024;14.492;2024-02-21T09:35:15;98334.56;;;6.87;79.53
75788;BME280;64406;50.024;14.492;2024-02-21T09:37:41;98335.50;;;6.97;79.06
75788;BME280;64406;50.024;14.492;2024-02-21T09:40:07;98354.19;;;7.19;78.50
75788;BME280;64406;50.024;14.492;2024-02-21T09:42:40;98346.38;;;7.45;78.09
75788;BME280;64406;50.024;14.492;2024-02-21T09:45:26;98325.56;;;7.57;77.27
75788;BME280;64406;50.024;14.492;2024-02-21T09:50:47;98323.75;;;8.00;75.40
75788;BME280;64406;50.024;14.492;2024-02-21T09:53:14;98321.97;;;7.78;74.74
75788;BME280;64406;50.024;14.492;2024-02-21T09:55:41;98314.41;;;7.70;75.40
75788;BME280;64406;50.024;14.492;2024-02-21T09:58:09;98309.19;;;7.90;74.46
75788;BME280;64406;50.024;14.492;2024-02-21T10:00:36;98297.41;;;7.97;74.12
75788;BME280;64406;50.024;14.492;2024-02-21T10:03:02;98295.00;;;7.95;73.06
75788;BME280;64406;50.024;14.492;2024-02-21T10:05:36;98288.06;;;7.99;72.82
75788;BME280;64406;50.024;14.492;2024-02-21T10:08:03;98288.38;;;8.08;71.98
75788;BME280;64406;50.024;14.492;2024-02-21T10:10:28;98284.16;;;8.27;71.97
75788;BME280;64406;50.024;14.492;2024-02-21T10:12:55;98295.53;;;8.44;69.77
75788;BME280;64406;50.024;14.492;2024-02-21T10:15:24;98288.38;;;8.76;69.72
75788;BME280;64406;50.024;14.492;2024-02-21T10:17:58;98278.75;;;8.95;68.08
75788;BME280;64406;50.024;14.492;2024-02-21T10:20:24;98290.06;;;9.07;67.71
75788;BME280;64406;50.024;14.492;2024-02-21T10:23:00;98292.47;;;9.24;66.92
75788;BME280;64406;50.024;14.492;2024-02-21T10:25:27;98301.34;;;8.99;66.82
75788;BME280;64406;50.024;14.492;2024-02-21T10:27:53;98300.16;;;8.64;67.58
75788;BME280;64406;50.024;14.492;2024-02-21T10:30:19;98298.53;;;8.63;67.63
75788;BME280;64406;50.024;14.492;2024-02-21T10:32:52;98302.47;;;8.35;68.31
75788;BME280;64406;50.024;14.492;2024-02-21T10:35:32;98307.19;;;8.18;69.58
75788;BME280;64406;50.024;14.492;2024-02-21T10:37:58;98291.84;;;8.08;70.41
75788;BME280;64406;50.024;14.492;2024-02-21T10:40:28;98285.13;;;8.01;70.83
75788;BME280;64406;50.024;14.492;2024-02-21T10:42:59;98292.34;;;8.00;69.99
75788;BME280;64406;50.024;14.492;2024-02-21T10:45:30;98290.50;;;8.06;71.18
75788;BME280;64406;50.024;14.492;2024-02-21T10:48:08;98296.13;;;8.04;70.74
75788;BME280;64406;50.024;14.492;2024-02-21T10:53:21;98295.84;;;8.01;70.53
75788;BME280;64406;50.024;14.492;2024-02-21T10:58:53;98274.13;;;8.70;68.50
75788;BME280;64406;50.024;14.492;2024-02-21T11:01:21;98281.44;;;9.00;66.53
75788;BME280;64406;50.024;14.492;2024-02-21T11:03:49;98286.50;;;8.76;66.43
75788;BME280;64406;50.024;14.492;2024-02-21T11:06:16;98277.66;;;8.86;67.34
75788;BME280;64406;50.024;14.492;2024-02-21T11:08:44;98280.88;;;8.88;66.70
75788;BME280;64406;50.024;14.492;2024-02-21T11:11:12;98269.34;;;8.97;66.20
75788;BME280;64406;50.024;14.492;2024-02-21T11:13:42;98272.84;;;9.03;65.04
75788;BME280;64406;50.024;14.492;2024-02-21T11:16:10;98279.03;;;9.04;64.44
75788;BME280;64406;50.024;14.492;2024-02-21T11:18:37;98274.19;;;9.36;63.97
75788;BME280;64406;50.024;14.492;2024-02-21T11:21:05;98273.13;;;9.42;63.37
75788;BME280;64406;50.024;14.492;2024-02-21T11:23:31;98272.31;;;9.47;63.08
75788;BME280;64406;50.024;14.492;2024-02-21T11:26:07;98278.22;;;9.59;63.75
75788;BME280;64406;50.024;14.492;2024-02-21T11:28:33;98272.00;;;9.74;62.87
75788;BME280;64406;50.024;14.492;2024-02-21T11:33:35;98265.31;;;9.71;62.68
75788;BME280;64406;50.024;14.492;2024-02-21T11:36:01;98252.06;;;9.90;63.24
75788;BME280;64406;50.024;14.492;2024-02-21T11:38:29;98248.03;;;9.88;63.39
75788;BME280;64406;50.024;14.492;2024-02-21T11:40:55;98251.34;;;9.54;63.37
75788;BME280;64406;50.024;14.492;2024-02-21T11:43:21;98240.50;;;9.90;63.56
75788;BME280;64406;50.024;14.492;2024-02-21T11:45:46;98229.69;;;10.05;63.34
75788;BME280;64406;50.024;14.492;2024-02-21T11:48:12;98232.78;;;10.43;61.57
75788;BME280;64406;50.024;14.492;2024-02-21T11:50:38;98229.34;;;10.17;63.46
75788;BME280;64406;50.024;14.492;2024-02-21T11:53:05;98228.97;;;9.79;63.21
75788;BME280;64406;50.024;14.492;2024-02-21T11:55:31;98224.91;;;9.92;62.81
75788;BME280;64406;50.024;14.492;2024-02-21T11:57:56;98223.59;;;9.79;64.26
75788;BME280;64406;50.024;14.492;2024-02-21T12:00:23;98212.81;;;9.84;64.22
75788;BME280;64406;50.024;14.492;2024-02-21T12:02:50;98199.63;;;9.88;64.13
75788;BME280;64406;50.024;14.492;2024-02-21T12:05:16;98198.53;;;9.89;64.37
75788;BME280;64406;50.024;14.492;2024-02-21T12:07:43;98198.56;;;9.78;64.50
75788;BME280;64406;50.024;14.492;2024-02-21T12:10:10;98194.44;;;10.06;63.96
75788;BME280;64406;50.024;14.492;2024-02-21T12:12:37;98189.16;;;9.76;65.00
75788;BME280;64406;50.024;14.492;2024-02-21T12:15:04;98184.09;;;9.64;64.72
75788;BME280;64406;50.024;14.492;2024-02-21T12:17:33;98174.19;;;9.44;66.29
75788;BME280;64406;50.024;14.492;2024-02-21T12:20:01;98172.50;;;9.69;65.55
75788;BME280;64406;50.024;14.492;2024-02-21T12:22:29;98177.41;;;10.21;65.06
75788;BME280;64406;50.024;14.492;2024-02-21T12:24:58;98158.25;;;10.33;62.80
75788;BME280;64406;50.024;14.492;2024-02-21T12:27:24;98161.97;;;10.42;63.69
75788;BME280;64406;50.024;14.492;2024-02-21T12:29:50;98157.84;;;10.55;62.86
75788;BME280;64406;50.024;14.492;2024-02-21T12:32:16;98162.56;;;10.34;63.65
75788;BME280;64406;50.024;14.492;2024-02-21T12:34:42;98159.19;;;10.57;62.75
75788;BME280;64406;50.024;14.492;2024-02-21T12:37:07;98150.00;;;10.58;62.55
75788;BME280;64406;50.024;14.492;2024-02-21T12:39:33;98151.31;;;10.95;62.50
75788;BME280;64406;50.024;14.492;2024-02-21T12:41:59;98131.69;;;11.48;61.17
75788;BME280;64406;50.024;14.492;2024-02-21T12:44:25;98135.59;;;11.36;60.57
75788;BME280;64406;50.024;14.492;2024-02-21T12:46:50;98130.50;;;11.83;58.61
75788;BME280;64406;50.024;14.492;2024-02-21T12:49:19;98131.81;;;11.37;60.15
75788;BME280;64406;50.024;14.492;2024-02-21T12:51:44;98113.88;;;10.94;61.17
75788;BME280;64406;50.024;14.492;2024-02-21T12:54:12;98106.09;;;10.63;62.17
75788;BME280;64406;50.024;14.492;2024-02-21T12:56:38;98100.00;;;10.47;61.89
75788;BME280;64406;50.024;14.492;2024-02-21T12:59:05;98109.00;;;10.32;62.50
75788;BME280;64406;50.024;14.492;2024-02-21T13:01:35;98103.31;;;10.34;61.45
75788;BME280;64406;50.024;14.492;2024-02-21T13:04:01;98102.72;;;10.42;61.83
75788;BME280;64406;50.024;14.492;2024-02-21T13:06:26;98100.88;;;10.38;61.80
75788;BME280;64406;50.024;14.492;2024-02-21T13:08:53;98079.84;;;10.40;61.64